LKMT/OSR METAR and TAF weather

Enter ICAO airport designator
Station Type Date Time Source
LKMT METAR 2022/06/29 00:00 UTC NOAA

LKMT 290000Z 06006KT CAVOK 18/18 Q1018 NOSIG


Station Type Date Time Source
LKMT Decoded METAR 2022/06/29 00:00 UTC NOAA

Ostrava / Mosnov, Czech Republic (LKMT) 49-41N 018-07E 256M
Jun 28, 2022 - 08:00 PM EDT / 2022.06.29 0000 UTC
Wind: from the ENE (060 degrees) at 7 MPH (6 KT):0
Visibility: greater than 7 mile(s):0
Temperature: 64 F (18 C)
Dew Point: 64 F (18 C)
Relative Humidity: 100%
Pressure (altimeter): 30.06 in. Hg (1018 hPa)
ob: LKMT 290000Z 06006KT CAVOK 18/18 Q1018 NOSIG
cycle: 0

Station Type Date Time Source
LKMT TAF 2022/06/28 18:06 UTC NOAA

TAF LKMT 281700Z 2818/3000 02006KT 9999 BKN027
TEMPO 2818/3000 9999 FEW027CB SCT040 PROB30
TEMPO 2915/2918 5000 TSRA BKN013CB

Example: see airport list